Time;durP1;ratioP1;P1;durP2;ratioP2;P2;SDS_P1;SDS_P2;PMS_P1;PMS_P2;Temp;Humidity;BMP_temperature;BMP_pressure;BME280_temperature;BME280_humidity;BME280_pressure;Samples;Min_cycle;Max_cycle;Signal;HPM_P1;HPM_P2
2022/12/06 00:01:28;;;;;;;9.68;2.50;;;4.90;99.90;;;;;;5068982;28;20049;-59
2022/12/06 00:03:58;;;;;;;12.38;3.38;;;4.90;99.90;;;;;;5057501;28;20078;-60
2022/12/06 00:06:28;;;;;;;8.30;3.20;;;4.90;99.90;;;;;;5060287;28;20056;-59
2022/12/06 00:08:56;;;;;;;;;;;4.90;99.90;;;;;;5062836;28;20048;-59
2022/12/06 00:11:26;;;;;;;6.53;1.98;;;4.90;99.90;;;;;;5066301;28;19935;-58
2022/12/06 00:14:03;;;;;;;13.02;2.25;;;4.80;99.90;;;;;;5057681;28;20053;-59
2022/12/06 00:16:31;;;;;;;10.57;1.50;;;4.80;99.90;;;;;;5056722;28;20040;-58
2022/12/06 00:18:59;;;;;;;8.73;2.13;;;4.80;99.90;;;;;;5057038;28;20064;-60
2022/12/06 00:21:33;;;;;;;7.68;1.85;;;4.80;99.90;;;;;;5062970;28;20041;-58
2022/12/06 00:24:12;;;;;;;8.75;2.10;;;4.80;99.90;;;;;;5059140;28;20049;-60
2022/12/06 00:26:42;;;;;;;5.23;1.77;;;4.80;99.90;;;;;;5063851;28;20069;-60
2022/12/06 00:29:17;;;;;;;4.72;1.90;;;4.80;99.90;;;;;;5063920;28;20052;-60
2022/12/06 00:31:45;;;;;;;8.75;2.47;;;4.80;99.90;;;;;;5052240;28;20041;-60
2022/12/06 00:34:13;;;;;;;7.90;3.13;;;4.80;99.90;;;;;;5053598;28;20184;-60
2022/12/06 00:36:41;;;;;;;5.13;2.30;;;4.80;99.90;;;;;;5048197;28;20500;-59
2022/12/06 00:39:12;;;;;;;7.32;3.35;;;4.80;99.90;;;;;;5067033;28;20037;-63
2022/12/06 00:41:40;;;;;;;6.78;2.63;;;4.80;99.90;;;;;;5069870;28;20048;-59
2022/12/06 00:44:09;;;;;;;6.88;2.78;;;4.80;99.90;;;;;;5061852;28;20560;-61
2022/12/06 00:46:37;;;;;;;8.63;2.45;;;4.80;99.90;;;;;;5056095;28;20043;-60
2022/12/06 00:49:06;;;;;;;9.85;2.58;;;4.80;99.90;;;;;;5047374;28;20041;-60
2022/12/06 00:51:35;;;;;;;9.05;2.75;;;4.80;99.90;;;;;;5048208;28;20052;-61
2022/12/06 00:54:04;;;;;;;6.57;2.45;;;4.80;99.90;;;;;;5058891;28;20521;-61
2022/12/06 00:56:34;;;;;;;6.95;2.45;;;4.70;99.90;;;;;;5067454;28;20048;-62
2022/12/06 00:59:03;;;;;;;14.77;3.28;;;4.70;99.90;;;;;;5068282;28;20049;-59
2022/12/06 01:01:34;;;;;;;5.72;2.25;;;4.70;99.90;;;;;;5051871;28;20045;-61
2022/12/06 01:04:05;;;;;;;7.40;2.42;;;4.70;99.90;;;;;;5050873;28;20171;-60
2022/12/06 01:06:35;;;;;;;5.65;2.40;;;4.70;99.90;;;;;;5055708;28;20067;-63
2022/12/06 01:09:12;;;;;;;6.80;2.00;;;4.70;99.90;;;;;;5050091;28;20068;-62
2022/12/06 01:11:40;;;;;;;6.15;1.35;;;4.70;99.90;;;;;;5052371;28;20052;-64
2022/12/06 01:14:08;;;;;;;7.15;1.42;;;4.60;99.90;;;;;;5061483;28;20047;-64
2022/12/06 01:16:35;;;;;;;6.40;1.55;;;4.60;99.90;;;;;;5050640;28;20049;-63
2022/12/06 01:19:04;;;;;;;4.72;2.13;;;4.60;99.90;;;;;;5058284;28;20043;-64
2022/12/06 01:21:32;;;;;;;4.18;1.20;;;4.60;99.90;;;;;;5056209;28;20053;-63
2022/12/06 01:23:59;;;;;;;6.10;0.82;;;4.60;99.90;;;;;;5054422;28;20044;-62
2022/12/06 01:26:30;;;;;;;2.97;1.33;;;4.50;99.90;;;;;;5061466;28;20067;-63
2022/12/06 01:28:59;;;;;;;9.63;1.48;;;4.50;99.90;;;;;;5064995;28;20056;-63
2022/12/06 01:31:28;;;;;;;5.20;1.00;;;4.50;99.90;;;;;;5050179;28;20388;-65
2022/12/06 01:34:14;;;;;;;5.93;0.93;;;4.40;99.90;;;;;;5056869;28;20515;-63
2022/12/06 01:36:43;;;;;;;2.83;0.93;;;4.30;99.90;;;;;;5049469;28;20056;-62
2022/12/06 01:39:11;;;;;;;3.22;1.95;;;4.30;99.90;;;;;;5059030;28;20036;-61
2022/12/06 01:41:39;;;;;;;5.10;0.80;;;4.20;99.90;;;;;;5060826;28;20041;-63
2022/12/06 01:44:40;;;;;;;10.23;1.20;;;4.10;99.90;;;;;;5054571;28;20051;-64
2022/12/06 01:47:15;;;;;;;1.98;0.95;;;4.10;99.90;;;;;;5067160;28;20059;-63
2022/12/06 01:49:48;;;;;;;6.15;1.20;;;3.90;99.90;;;;;;5056040;28;20044;-62
2022/12/06 01:52:17;;;;;;;4.38;1.17;;;3.90;99.90;;;;;;5047439;28;20041;-59
2022/12/06 01:54:45;;;;;;;4.53;1.70;;;3.80;99.90;;;;;;5063768;28;20472;-59
2022/12/06 01:57:15;;;;;;;3.78;1.50;;;3.80;99.90;;;;;;5067910;28;20288;-60
2022/12/06 01:59:43;;;;;;;3.83;1.05;;;3.60;99.90;;;;;;5068388;28;20044;-61
2022/12/06 02:02:11;;;;;;;4.10;1.02;;;3.50;99.90;;;;;;5063662;28;20519;-61
2022/12/06 02:04:39;;;;;;;9.30;1.33;;;3.50;99.90;;;;;;5062095;28;20047;-59
2022/12/06 02:07:07;;;;;;;5.85;1.20;;;3.40;99.90;;;;;;5048671;28;20041;-60
2022/12/06 02:09:36;;;;;;;5.38;1.05;;;3.30;99.90;;;;;;5048627;28;20053;-60
2022/12/06 02:12:12;;;;;;;1.00;0.88;;;3.30;99.90;;;;;;5048273;28;20059;-59
2022/12/06 02:14:41;;;;;;;2.85;0.80;;;3.20;99.90;;;;;;5060571;28;20055;-60
2022/12/06 02:17:30;;;;;;;4.75;1.13;;;3.00;99.90;;;;;;5053351;28;20067;-59
2022/12/06 02:19:57;;;;;;;3.22;1.17;;;3.00;99.90;;;;;;5049045;28;20127;-60
2022/12/06 02:22:39;;;;;;;4.18;1.20;;;2.90;99.90;;;;;;5047437;28;20056;-60
2022/12/06 02:25:16;;;;;;;1.65;0.85;;;2.90;99.90;;;;;;5054166;28;20484;-58
2022/12/06 02:28:04;;;;;;;7.22;1.60;;;2.80;99.90;;;;;;5055316;28;20559;-60
2022/12/06 02:30:49;;;;;;;8.35;1.42;;;2.70;99.90;;;;;;5034421;28;20057;-59
2022/12/06 02:33:30;;;;;;;1.92;1.00;;;2.70;99.90;;;;;;5052691;28;20037;-59
2022/12/06 02:36:12;;;;;;;2.25;1.10;;;2.60;99.90;;;;;;5060091;28;20048;-62
2022/12/06 02:38:48;;;;;;;2.42;0.98;;;2.60;99.90;;;;;;5059579;28;20640;-63
2022/12/06 02:41:22;;;;;;;6.25;1.77;;;2.60;99.90;;;;;;5055918;28;20049;-64
2022/12/06 02:44:05;;;;;;;3.72;1.50;;;2.40;99.90;;;;;;5049259;28;20060;-64
2022/12/06 02:46:37;;;;;;;7.38;1.33;;;2.40;99.90;;;;;;5057239;28;20064;-62
2022/12/06 02:49:07;;;;;;;4.43;1.50;;;2.30;99.90;;;;;;5053121;28;20048;-60
2022/12/06 02:51:36;;;;;;;7.10;1.25;;;2.20;99.90;;;;;;5055864;28;20412;-62
2022/12/06 02:54:07;;;;;;;1.77;1.10;;;2.20;99.90;;;;;;5054430;28;20053;-59
2022/12/06 02:56:35;;;;;;;3.55;1.15;;;2.20;99.90;;;;;;5054557;28;20056;-64
2022/12/06 02:59:04;;;;;;;4.65;1.15;;;2.10;99.90;;;;;;5070061;28;20488;-62
2022/12/06 03:01:35;;;;;;;2.70;1.33;;;2.00;99.90;;;;;;5065951;28;20546;-64
2022/12/06 03:04:06;;;;;;;4.40;1.10;;;2.00;99.90;;;;;;5070771;28;20060;-60
2022/12/06 03:07:06;;;;;;;3.30;1.50;;;1.90;99.90;;;;;;5052545;28;20053;-63
2022/12/06 03:09:55;;;;;;;;;;;1.90;99.90;;;;;;5050789;28;20361;-62
2022/12/06 03:12:41;;;;;;;3.40;1.85;;;1.80;99.90;;;;;;5059171;28;20376;-63
2022/12/06 03:15:20;;;;;;;4.97;1.88;;;1.80;99.90;;;;;;5051275;28;20128;-63
2022/12/06 03:18:00;;;;;;;7.70;1.45;;;1.70;99.90;;;;;;5049382;28;20115;-62
2022/12/06 03:20:32;;;;;;;6.55;3.28;;;1.70;99.90;;;;;;5060018;28;20041;-63
2022/12/06 03:23:06;;;;;;;4.13;1.65;;;2.20;99.90;;;;;;5050188;28;20057;-63
2022/12/06 03:25:35;;;;;;;6.30;2.28;;;1.60;99.90;;;;;;5059308;28;20500;-64
2022/12/06 03:28:05;;;;;;;4.53;1.63;;;1.60;99.90;;;;;;5054799;28;20049;-64
2022/12/06 03:30:34;;;;;;;5.13;1.60;;;1.50;99.90;;;;;;5062015;28;20400;-64
2022/12/06 03:33:02;;;;;;;3.72;1.73;;;1.50;99.90;;;;;;5055310;28;20048;-62
2022/12/06 03:35:33;;;;;;;4.18;2.13;;;1.50;99.90;;;;;;5068178;28;20049;-62
2022/12/06 03:38:34;;;;;;;5.63;1.65;;;1.40;99.90;;;;;;5064121;28;20049;-62
2022/12/06 03:41:05;;;;;;;4.35;1.60;;;1.40;99.90;;;;;;5068738;28;20396;-64
2022/12/06 03:43:33;;;;;;;10.77;2.40;;;1.40;99.90;;;;;;5070216;28;20059;-64
2022/12/06 03:46:09;;;;;;;7.35;2.22;;;1.30;99.90;;;;;;5065307;28;20059;-61
2022/12/06 03:48:48;;;;;;;6.90;1.63;;;1.30;99.90;;;;;;5062100;28;20044;-63
2022/12/06 03:51:22;;;;;;;5.25;1.60;;;1.20;99.90;;;;;;5071010;28;20402;-63
2022/12/06 03:53:55;;;;;;;5.03;1.77;;;1.20;99.90;;;;;;5064953;28;20064;-63
2022/12/06 03:56:24;;;;;;;8.57;2.03;;;1.20;99.90;;;;;;5058448;28;20048;-62
2022/12/06 03:58:51;;;;;;;5.13;1.98;;;1.20;99.90;;;;;;5071583;28;20056;-63
2022/12/06 04:01:19;;;;;;;7.30;1.70;;;1.20;99.90;;;;;;5055327;28;20045;-63
2022/12/06 04:03:50;;;;;;;5.63;1.85;;;1.20;99.90;;;;;;5062073;28;20044;-60
2022/12/06 04:06:18;;;;;;;7.78;1.70;;;1.30;99.90;;;;;;5060213;28;20041;-60
2022/12/06 04:08:46;;;;;;;6.55;1.92;;;1.30;99.90;;;;;;5055567;28;20048;-63
2022/12/06 04:11:14;;;;;;;4.97;1.70;;;1.30;99.90;;;;;;5052295;28;20047;-61
2022/12/06 04:13:42;;;;;;;4.25;2.15;;;1.30;99.90;;;;;;5056885;28;20401;-60
2022/12/06 04:18:56;;;;;;;5.93;2.40;;;1.30;99.90;;;;;;5053526;28;20055;-64
2022/12/06 04:24:01;;;;;;;6.32;2.47;;;1.20;99.90;;;;;;5068661;28;20060;-62
2022/12/06 04:26:29;;;;;;;6.03;2.58;;;1.20;99.90;;;;;;5071097;28;20044;-62
2022/12/06 04:40:02;;;;;;;11.82;2.80;;;1.00;99.90;;;;;;5069814;28;20040;-59
2022/12/06 04:45:29;;;;;;;4.78;2.72;;;0.80;99.90;;;;;;5058251;28;20055;-60
2022/12/06 04:47:57;;;;;;;6.38;2.63;;;0.80;99.90;;;;;;5058301;28;20047;-59
2022/12/06 04:50:25;;;;;;;7.50;3.03;;;0.80;99.90;;;;;;5071289;28;20041;-59
2022/12/06 04:52:52;;;;;;;7.43;2.75;;;0.70;99.90;;;;;;5064900;28;20041;-60
2022/12/06 04:55:20;;;;;;;7.60;3.22;;;0.70;99.90;;;;;;5063582;28;20044;-58
2022/12/06 04:57:47;;;;;;;5.00;2.63;;;0.70;99.90;;;;;;5060332;28;20063;-59
2022/12/06 05:00:15;;;;;;;8.68;3.30;;;0.60;99.90;;;;;;5057811;28;20041;-60
2022/12/06 05:02:42;;;;;;;5.53;2.72;;;0.60;99.90;;;;;;5065196;28;20411;-59
2022/12/06 05:05:10;;;;;;;6.43;2.97;;;1.30;99.90;;;;;;5054400;28;20488;-58
2022/12/06 05:07:38;;;;;;;5.70;2.72;;;0.50;99.90;;;;;;5057962;28;20036;-60
2022/12/06 05:10:06;;;;;;;14.68;2.50;;;0.60;99.90;;;;;;5071457;28;20565;-59
2022/12/06 05:12:34;;;;;;;8.98;2.75;;;0.60;99.90;;;;;;5066136;28;20050;-59
2022/12/06 05:15:02;;;;;;;7.90;2.92;;;0.50;99.90;;;;;;5058382;28;20040;-60
2022/12/06 05:17:30;;;;;;;5.72;2.42;;;0.50;99.90;;;;;;5068527;28;20052;-60
2022/12/06 05:19:57;;;;;;;5.97;2.60;;;0.50;99.90;;;;;;5056061;28;20037;-58
2022/12/06 05:22:25;;;;;;;6.88;3.33;;;0.50;99.90;;;;;;5066623;28;20040;-59
2022/12/06 05:24:53;;;;;;;12.35;3.05;;;0.40;99.90;;;;;;5064258;28;20480;-59
2022/12/06 05:27:20;;;;;;;5.90;2.75;;;0.40;99.90;;;;;;5060379;28;20041;-59
2022/12/06 05:29:48;;;;;;;5.35;2.63;;;0.40;99.90;;;;;;5062111;28;20400;-58
2022/12/06 05:32:15;;;;;;;11.27;3.58;;;0.40;99.90;;;;;;5052030;28;20366;-58
2022/12/06 05:34:43;;;;;;;5.07;3.15;;;0.30;99.90;;;;;;5063155;28;20764;-58
2022/12/06 05:37:11;;;;;;;7.10;3.38;;;0.30;99.90;;;;;;5070826;28;20060;-59
2022/12/06 05:39:38;;;;;;;8.27;3.70;;;0.30;99.90;;;;;;5070914;28;20048;-60
2022/12/06 05:42:06;;;;;;;14.88;4.60;;;0.30;99.90;;;;;;5066672;28;20048;-61
2022/12/06 05:44:34;;;;;;;9.18;4.25;;;0.30;99.90;;;;;;5059313;28;20052;-62
2022/12/06 05:47:01;;;;;;;7.05;3.67;;;0.30;99.90;;;;;;5053282;28;20048;-63
2022/12/06 05:49:29;;;;;;;11.43;4.38;;;0.30;99.90;;;;;;5050781;28;20059;-64
2022/12/06 05:51:56;;;;;;;9.20;4.05;;;0.20;99.90;;;;;;5030268;28;20056;-63
2022/12/06 05:54:30;;;;;;;8.57;4.35;;;0.30;99.90;;;;;;5059367;28;20044;-65
2022/12/06 05:56:58;;;;;;;12.63;4.60;;;0.20;99.90;;;;;;5054811;28;20380;-63
2022/12/06 05:59:25;;;;;;;13.80;4.70;;;0.20;99.90;;;;;;5062573;28;20054;-62
2022/12/06 06:01:53;;;;;;;8.38;4.28;;;0.20;99.90;;;;;;5059397;28;20045;-63
2022/12/06 06:04:21;;;;;;;16.10;5.93;;;0.20;99.90;;;;;;5045299;28;20044;-64
2022/12/06 06:06:48;;;;;;;9.63;4.85;;;0.20;99.90;;;;;;5054927;28;20048;-65
2022/12/06 06:09:19;;;;;;;17.77;6.00;;;0.10;99.90;;;;;;5065488;28;20059;-64
2022/12/06 06:11:47;;;;;;;14.48;5.00;;;0.20;99.90;;;;;;5067202;28;20056;-59
2022/12/06 06:14:15;;;;;;;11.63;5.55;;;0.10;99.90;;;;;;5053934;28;20059;-63
2022/12/06 06:16:42;;;;;;;17.48;6.85;;;0.20;99.90;;;;;;5059190;28;20553;-62
2022/12/06 06:19:10;;;;;;;23.40;6.40;;;0.20;99.90;;;;;;5058892;28;20415;-62
2022/12/06 06:21:38;;;;;;;12.40;6.00;;;0.20;99.90;;;;;;5049984;28;20053;-63
2022/12/06 06:24:06;;;;;;;13.43;6.00;;;0.20;99.90;;;;;;5062783;28;20049;-63
2022/12/06 06:26:33;;;;;;;14.65;5.53;;;0.20;99.90;;;;;;5066794;28;20048;-61
2022/12/06 06:29:01;;;;;;;12.98;5.63;;;0.20;99.90;;;;;;5066815;28;20040;-64
2022/12/06 06:31:28;;;;;;;12.32;5.05;;;0.20;99.90;;;;;;5067010;28;20059;-63
2022/12/06 06:33:56;;;;;;;14.05;5.50;;;0.20;99.90;;;;;;5050018;28;20045;-62
2022/12/06 06:36:24;;;;;;;10.82;5.47;;;0.20;99.90;;;;;;5045919;28;20428;-61
2022/12/06 06:38:52;;;;;;;14.88;6.05;;;0.10;99.90;;;;;;5057845;28;20385;-61
2022/12/06 06:41:19;;;;;;;18.70;5.63;;;0.10;99.90;;;;;;5065793;28;20048;-60
2022/12/06 06:43:47;;;;;;;10.43;5.13;;;0.20;99.90;;;;;;5067609;28;20044;-62
2022/12/06 06:46:15;;;;;;;17.77;5.70;;;0.10;99.90;;;;;;5054887;28;20045;-61
2022/12/06 06:48:43;;;;;;;11.23;5.18;;;0.10;99.90;;;;;;5058749;28;20045;-60
2022/12/06 06:51:13;;;;;;;9.95;5.05;;;0.10;99.90;;;;;;5046512;28;20048;-60
2022/12/06 06:53:40;;;;;;;12.02;5.60;;;0.10;99.90;;;;;;5061320;28;20052;-61
2022/12/06 06:56:08;;;;;;;13.43;5.22;;;0.10;99.90;;;;;;5067326;28;20056;-59
2022/12/06 06:58:36;;;;;;;13.05;5.18;;;0.00;99.90;;;;;;5065843;28;20060;-60
2022/12/06 07:01:06;;;;;;;11.35;5.95;;;0.00;99.90;;;;;;5046763;28;20037;-63
2022/12/06 07:03:34;;;;;;;16.65;5.60;;;0.00;99.90;;;;;;5060143;28;20049;-62
2022/12/06 07:06:09;;;;;;;14.18;5.60;;;0.00;99.90;;;;;;5045625;28;20052;-61
2022/12/06 07:08:38;;;;;;;15.13;6.00;;;-0.10;99.90;;;;;;5052167;28;20049;-59
2022/12/06 07:11:07;;;;;;;17.23;5.28;;;-0.10;99.90;;;;;;5049617;28;20045;-62
2022/12/06 07:13:36;;;;;;;14.20;5.97;;;0.00;99.90;;;;;;5056533;28;20051;-66
2022/12/06 07:16:05;;;;;;;14.23;6.23;;;-0.10;99.90;;;;;;5052863;28;20533;-63
2022/12/06 07:18:33;;;;;;;13.35;5.60;;;-0.10;99.90;;;;;;5062168;28;20306;-61
2022/12/06 07:21:06;;;;;;;10.57;5.03;;;-0.10;99.90;;;;;;5054605;28;20045;-58
2022/12/06 07:23:34;;;;;;;15.32;6.20;;;-0.10;99.90;;;;;;5058955;28;20641;-60
2022/12/06 07:26:09;;;;;;;11.68;5.00;;;-0.10;99.90;;;;;;5048603;28;20056;-61
2022/12/06 07:28:39;;;;;;;16.05;5.15;;;-0.10;99.90;;;;;;5056851;28;20052;-59
2022/12/06 07:31:12;;;;;;;7.97;4.22;;;-0.20;99.90;;;;;;5058243;28;20047;-61
2022/12/06 07:33:44;;;;;;;19.50;4.72;;;-0.20;99.90;;;;;;5063000;28;20049;-60
2022/12/06 07:36:13;;;;;;;13.50;5.25;;;-0.20;99.90;;;;;;5049871;28;20044;-62
2022/12/06 07:38:42;;;;;;;18.35;5.28;;;-0.20;99.90;;;;;;5060062;28;20044;-60
2022/12/06 07:46:47;;;;;;;12.23;4.88;;;-0.20;99.90;;;;;;5060378;28;20086;-59
2022/12/06 07:49:16;;;;;;;17.13;5.20;;;-0.20;99.90;;;;;;5056087;28;20040;-60
2022/12/06 07:51:45;;;;;;;12.20;4.38;;;-0.20;99.90;;;;;;5054645;28;20052;-59
2022/12/06 07:54:14;;;;;;;19.73;5.68;;;-0.20;99.90;;;;;;5055941;28;20063;-59
2022/12/06 07:56:43;;;;;;;20.10;5.90;;;-0.20;99.90;;;;;;5056927;28;20084;-60
2022/12/06 07:59:11;;;;;;;19.10;6.05;;;-0.20;99.90;;;;;;5050813;28;20503;-59
2022/12/06 08:01:39;;;;;;;19.45;5.60;;;-0.20;99.90;;;;;;5047781;28;20060;-59
2022/12/06 08:04:07;;;;;;;14.95;4.88;;;-0.20;99.90;;;;;;5059262;28;20252;-59
2022/12/06 08:06:36;;;;;;;18.73;6.30;;;-0.20;99.90;;;;;;5048246;28;20040;-60
2022/12/06 08:09:04;;;;;;;15.35;5.25;;;-0.20;99.90;;;;;;5052552;28;20267;-58
2022/12/06 08:11:35;;;;;;;11.93;5.28;;;-0.20;99.90;;;;;;5051283;28;20239;-60
2022/12/06 08:14:03;;;;;;;17.73;6.28;;;-0.10;99.90;;;;;;5046099;28;20507;-58
2022/12/06 08:16:31;;;;;;;24.17;6.82;;;-0.20;99.90;;;;;;5049573;28;20036;-58
2022/12/06 08:18:59;;;;;;;21.27;8.00;;;-0.10;99.90;;;;;;5055919;28;20049;-59
2022/12/06 08:21:27;;;;;;;23.40;8.43;;;-0.10;99.90;;;;;;5049225;28;20041;-58
2022/12/06 08:23:55;;;;;;;15.45;6.68;;;0.00;99.90;;;;;;5050225;28;20048;-59
2022/12/06 08:26:23;;;;;;;20.33;7.90;;;0.10;99.90;;;;;;5054711;28;20049;-62
2022/12/06 08:28:50;;;;;;;24.77;7.78;;;0.00;99.90;;;;;;5050680;28;20083;-61
2022/12/06 08:31:21;;;;;;;26.75;8.30;;;0.10;99.90;;;;;;5049239;28;20045;-61
2022/12/06 08:33:49;;;;;;;20.75;8.55;;;0.00;99.90;;;;;;5053560;28;20056;-64
2022/12/06 08:36:19;;;;;;;29.40;9.05;;;0.10;99.90;;;;;;5049478;28;20409;-59
2022/12/06 08:38:49;;;;;;;19.05;8.10;;;0.10;99.90;;;;;;5063696;28;20071;-63
2022/12/06 08:44:08;;;;;;;;;;;0.20;99.90;;;;;;5068728;28;20047;-62
2022/12/06 08:46:36;;;;;;;21.85;7.95;;;0.30;99.90;;;;;;5049102;28;19924;-63
2022/12/06 08:49:03;;;;;;;20.17;8.95;;;0.30;99.90;;;;;;5062778;28;20048;-59
2022/12/06 08:51:32;;;;;;;24.50;10.27;;;0.30;99.90;;;;;;5058360;28;20056;-59
2022/12/06 08:54:01;;;;;;;27.65;10.32;;;0.40;99.90;;;;;;5051132;28;20044;-62
2022/12/06 08:56:29;;;;;;;24.50;9.98;;;0.40;99.90;;;;;;5062950;28;20052;-59
2022/12/06 08:58:57;;;;;;;25.23;10.73;;;0.50;99.90;;;;;;5067594;28;20048;-63
2022/12/06 09:01:30;;;;;;;29.20;9.73;;;2.80;99.90;;;;;;5060161;28;20044;-62
2022/12/06 09:04:06;;;;;;;26.02;10.10;;;0.60;99.90;;;;;;5064281;28;20033;-62
2022/12/06 09:06:37;;;;;;;26.08;10.90;;;0.80;99.90;;;;;;5060118;28;20048;-63
2022/12/06 09:09:06;;;;;;;27.52;10.75;;;0.90;99.90;;;;;;5050500;28;20902;-63
2022/12/06 09:11:34;;;;;;;31.95;10.95;;;1.00;99.90;;;;;;5048384;28;20057;-62
2022/12/06 09:14:11;;;;;;;26.42;9.88;;;1.10;99.90;;;;;;5066074;28;20480;-58
2022/12/06 09:16:46;;;;;;;28.73;11.38;;;1.20;99.90;;;;;;5038050;28;20041;-62
2022/12/06 09:19:14;;;;;;;26.95;11.43;;;1.30;99.90;;;;;;5066369;28;20052;-60
2022/12/06 09:21:43;;;;;;;21.77;9.27;;;1.50;99.90;;;;;;5060997;28;20037;-63
2022/12/06 09:24:15;;;;;;;29.05;10.73;;;1.70;99.90;;;;;;5067364;28;20055;-60
2022/12/06 09:26:44;;;;;;;31.10;11.10;;;1.70;99.90;;;;;;5055463;28;20048;-61
2022/12/06 09:29:11;;;;;;;29.13;10.13;;;1.80;99.90;;;;;;5051060;28;20045;-64
2022/12/06 09:31:39;;;;;;;22.67;9.75;;;1.80;99.90;;;;;;5061710;28;20431;-62
2022/12/06 09:34:09;;;;;;;19.25;8.40;;;1.90;99.90;;;;;;5051398;28;20057;-61
2022/12/06 09:37:09;;;;;;;23.27;9.38;;;1.90;99.90;;;;;;5055828;28;20040;-63
2022/12/06 09:39:41;;;;;;;21.08;8.98;;;2.00;99.90;;;;;;5047371;28;20057;-60
2022/12/06 09:42:34;;;;;;;22.00;8.20;;;2.00;99.90;;;;;;5055139;28;20048;-58
2022/12/06 09:45:20;;;;;;;19.05;8.18;;;2.10;99.90;;;;;;5054122;28;20056;-60
2022/12/06 09:47:57;;;;;;;20.63;9.10;;;2.20;99.90;;;;;;5059037;28;20048;-61
2022/12/06 09:50:47;;;;;;;20.65;8.98;;;2.20;99.90;;;;;;5047945;28;20045;-59
2022/12/06 09:53:49;;;;;;;21.60;8.90;;;2.30;99.90;;;;;;5054894;28;20045;-63
2022/12/06 09:56:45;;;;;;;24.25;8.38;;;2.30;99.90;;;;;;5069695;28;20405;-62
2022/12/06 09:59:40;;;;;;;22.02;8.52;;;2.50;99.90;;;;;;5056836;28;20049;-59
2022/12/06 10:02:32;;;;;;;24.45;8.40;;;2.40;99.90;;;;;;5063370;28;20199;-61
2022/12/06 10:05:14;;;;;;;22.70;8.00;;;2.50;99.90;;;;;;5062613;28;20044;-59
2022/12/06 10:08:17;;;;;;;14.73;7.40;;;2.60;99.90;;;;;;5065533;28;20048;-60
2022/12/06 10:11:08;;;;;;;24.70;8.77;;;2.60;99.90;;;;;;5049172;28;20040;-60
2022/12/06 10:13:54;;;;;;;12.95;6.25;;;2.70;99.90;;;;;;5055987;28;20051;-61
2022/12/06 10:16:54;;;;;;;16.00;7.20;;;2.60;99.90;;;;;;5063504;28;20037;-60
2022/12/06 10:20:01;;;;;;;19.27;7.95;;;2.70;99.90;;;;;;5043284;28;20044;-59
2022/12/06 10:22:48;;;;;;;14.75;6.28;;;2.80;99.90;;;;;;5056520;28;20067;-61
2022/12/06 10:25:45;;;;;;;12.85;6.80;;;2.90;99.90;;;;;;5052794;28;20605;-59
2022/12/06 10:28:30;;;;;;;14.88;6.68;;;2.90;99.90;;;;;;5064517;28;20059;-59
2022/12/06 10:31:20;;;;;;;13.32;5.38;;;2.90;99.90;;;;;;5063398;28;20045;-61
2022/12/06 10:34:06;;;;;;;14.88;6.28;;;3.00;99.90;;;;;;5060214;28;20484;-62
2022/12/06 10:36:52;;;;;;;15.40;6.10;;;3.00;99.90;;;;;;5066509;28;20060;-65
2022/12/06 10:39:26;;;;;;;15.50;6.28;;;3.10;99.90;;;;;;5063078;28;20507;-63
2022/12/06 10:42:09;;;;;;;16.25;6.22;;;3.00;99.90;;;;;;5065267;28;20053;-60
2022/12/06 10:44:46;;;;;;;13.57;6.00;;;3.00;99.90;;;;;;5048115;28;20053;-63
2022/12/06 10:47:33;;;;;;;14.73;6.13;;;3.10;99.90;;;;;;5051787;28;20044;-63
2022/12/06 10:50:20;;;;;;;14.13;5.65;;;3.20;99.90;;;;;;5049947;28;20056;-64
2022/12/06 10:52:58;;;;;;;15.23;4.20;;;3.20;99.90;;;;;;5057975;28;20048;-65
2022/12/06 10:55:50;;;;;;;14.63;4.57;;;3.20;99.90;;;;;;5052304;28;20059;-64
2022/12/06 10:58:45;;;;;;;9.55;4.45;;;3.40;99.90;;;;;;5068249;28;20044;-62
2022/12/06 11:01:18;;;;;;;10.27;5.43;;;3.50;99.90;;;;;;5064750;28;20051;-64
2022/12/06 11:03:58;;;;;;;11.70;5.53;;;3.70;99.90;;;;;;5054622;28;20393;-64
2022/12/06 11:06:29;;;;;;;;;;;4.00;99.90;;;;;;5056124;28;20523;-63
2022/12/06 11:09:24;;;;;;;10.25;3.92;;;4.30;99.90;;;;;;5069943;28;19936;-62
2022/12/06 11:11:51;;;;;;;11.77;4.22;;;4.60;99.90;;;;;;5046877;28;20053;-66
2022/12/06 11:14:32;;;;;;;11.32;4.65;;;4.70;99.90;;;;;;5055441;28;20072;-63
2022/12/06 11:17:04;;;;;;;9.43;5.05;;;4.80;99.90;;;;;;5050591;28;20505;-63
2022/12/06 11:19:38;;;;;;;12.98;3.95;;;5.00;99.90;;;;;;5050961;28;20440;-64
2022/12/06 11:22:27;;;;;;;10.48;3.92;;;4.90;99.90;;;;;;5067805;28;20055;-66
2022/12/06 11:25:18;;;;;;;7.13;3.53;;;4.80;99.90;;;;;;5069556;28;20049;-65
2022/12/06 11:27:51;;;;;;;7.20;3.40;;;4.80;99.90;;;;;;5065853;28;20516;-61
2022/12/06 11:30:20;;;;;;;7.65;3.78;;;4.70;99.90;;;;;;5051379;28;20392;-64
2022/12/06 11:32:49;;;;;;;7.75;3.28;;;4.70;99.90;;;;;;5052700;28;20049;-64
2022/12/06 11:35:25;;;;;;;8.77;3.30;;;4.70;99.90;;;;;;5049544;28;20049;-65
2022/12/06 11:37:59;;;;;;;8.25;3.10;;;4.90;99.90;;;;;;5056986;28;20727;-60
2022/12/06 11:40:29;;;;;;;6.10;2.75;;;5.10;99.90;;;;;;5064425;28;20045;-61
2022/12/06 11:43:01;;;;;;;15.27;5.47;;;5.20;99.90;;;;;;5064691;28;20036;-62
2022/12/06 11:45:32;;;;;;;26.20;7.85;;;5.20;99.90;;;;;;5069436;28;20052;-60
2022/12/06 11:48:07;;;;;;;9.65;4.22;;;5.30;99.90;;;;;;5053454;28;20472;-60
2022/12/06 11:50:36;;;;;;;7.68;3.53;;;5.30;99.90;;;;;;5058218;28;20541;-59
2022/12/06 11:53:14;;;;;;;9.02;4.75;;;5.30;99.90;;;;;;5058969;28;20043;-60
2022/12/06 11:55:44;;;;;;;12.45;4.90;;;5.30;99.90;;;;;;5062269;28;20052;-61
2022/12/06 11:58:11;;;;;;;;;;;5.30;99.90;;;;;;5063251;28;20040;-60
2022/12/06 12:01:05;;;;;;;10.45;4.72;;;6.00;99.90;;;;;;5058090;28;19920;-58
2022/12/06 12:03:35;;;;;;;9.68;5.82;;;6.00;99.90;;;;;;5062831;28;20048;-58
2022/12/06 12:06:25;;;;;;;11.20;6.57;;;6.30;99.90;;;;;;5062011;28;20061;-59
2022/12/06 12:08:59;;;;;;;12.82;5.85;;;6.50;99.90;;;;;;5059731;28;20049;-59
2022/12/06 12:11:33;;;;;;;9.57;4.57;;;6.80;99.90;;;;;;5053544;28;20037;-59
2022/12/06 12:14:22;;;;;;;9.65;4.07;;;7.20;99.90;;;;;;5059325;28;20051;-59
2022/12/06 12:16:57;;;;;;;6.95;3.20;;;7.60;99.90;;;;;;5067631;28;20060;-58
2022/12/06 12:19:44;;;;;;;8.68;3.33;;;8.00;99.90;;;;;;5059185;28;20032;-58
2022/12/06 12:22:29;;;;;;;9.00;2.85;;;8.00;99.90;;;;;;5051272;28;20041;-61
2022/12/06 12:25:19;;;;;;;9.93;3.05;;;7.90;99.90;;;;;;5054324;28;20064;-59
2022/12/06 12:27:55;;;;;;;6.65;2.55;;;7.70;99.90;;;;;;5059324;28;20052;-61
2022/12/06 12:30:30;;;;;;;8.30;2.83;;;7.30;99.90;;;;;;5052491;28;20052;-58
2022/12/06 12:33:06;;;;;;;6.97;3.45;;;7.00;99.90;;;;;;5068927;28;20056;-58
2022/12/06 12:35:43;;;;;;;6.97;3.47;;;6.80;99.90;;;;;;5050710;28;20061;-60
2022/12/06 12:38:10;;;;;;;11.50;4.20;;;6.50;99.90;;;;;;5056623;28;20456;-59
2022/12/06 12:40:43;;;;;;;6.97;3.85;;;6.20;99.90;;;;;;5049562;28;20049;-60
2022/12/06 12:43:10;;;;;;;6.65;3.63;;;6.20;99.90;;;;;;5057645;28;20052;-61
2022/12/06 12:45:59;;;;;;;8.02;3.47;;;6.10;99.90;;;;;;5047898;28;20052;-62
2022/12/06 12:48:29;;;;;;;6.47;3.30;;;6.10;99.90;;;;;;5056720;28;20496;-58
2022/12/06 12:51:00;;;;;;;9.93;4.00;;;6.00;99.90;;;;;;5069608;28;20067;-58
2022/12/06 12:53:48;;;;;;;5.90;3.40;;;6.00;99.90;;;;;;5065139;28;20063;-58
2022/12/06 12:56:18;;;;;;;5.80;3.00;;;5.90;99.90;;;;;;5051929;28;20056;-63
2022/12/06 12:58:46;;;;;;;;;;;5.90;99.90;;;;;;5067324;28;20052;-58
2022/12/06 13:01:23;;;;;;;9.90;3.35;;;5.90;99.90;;;;;;5066338;28;19924;-57
2022/12/06 13:03:56;;;;;;;11.00;3.70;;;5.90;99.90;;;;;;5064037;28;20037;-62
2022/12/06 13:06:41;;;;;;;12.68;5.50;;;5.80;99.90;;;;;;5052534;28;20060;-59
2022/12/06 13:09:34;;;;;;;13.10;7.28;;;5.70;99.90;;;;;;5064222;28;20049;-58
2022/12/06 13:12:12;;;;;;;10.52;5.10;;;5.50;99.90;;;;;;5051971;28;20041;-58
2022/12/06 13:14:52;;;;;;;13.45;5.93;;;5.50;99.90;;;;;;5053879;28;20049;-61
2022/12/06 13:17:23;;;;;;;12.93;5.95;;;5.40;99.90;;;;;;5065626;28;20049;-60
2022/12/06 13:19:51;;;;;;;16.23;6.00;;;5.40;99.90;;;;;;5068298;28;20049;-59
2022/12/06 13:22:31;;;;;;;7.05;4.70;;;5.30;99.90;;;;;;5051097;28;20041;-58
2022/12/06 13:25:05;;;;;;;9.55;5.43;;;5.30;99.90;;;;;;5061827;28;20049;-57
2022/12/06 13:27:39;;;;;;;12.23;6.68;;;5.30;99.90;;;;;;5060581;28;20044;-58
2022/12/06 13:30:17;;;;;;;14.23;6.93;;;5.30;99.90;;;;;;5051242;28;20060;-58
2022/12/06 13:33:02;;;;;;;10.25;5.68;;;5.20;99.90;;;;;;5052566;28;20045;-60
2022/12/06 13:35:30;;;;;;;6.45;3.70;;;5.20;99.90;;;;;;5063946;28;20048;-59
2022/12/06 13:38:19;;;;;;;10.80;4.78;;;5.20;99.90;;;;;;5055679;28;20048;-59
2022/12/06 13:40:53;;;;;;;7.22;3.58;;;5.30;99.90;;;;;;5059156;28;20200;-58
2022/12/06 13:43:23;;;;;;;6.05;3.47;;;5.30;99.90;;;;;;5064749;28;20040;-58
2022/12/06 13:45:50;;;;;;;7.68;3.70;;;5.30;99.90;;;;;;5064090;28;20057;-61
2022/12/06 13:48:24;;;;;;;8.70;4.00;;;5.30;99.90;;;;;;5056959;28;20507;-58
2022/12/06 13:50:55;;;;;;;7.72;4.10;;;5.20;99.90;;;;;;5052907;28;20053;-59
2022/12/06 13:53:27;;;;;;;7.40;4.53;;;5.40;99.90;;;;;;5058868;28;20361;-59